Flight Track Log - Related Links

Times and Time Zones

All times are in EDT time to prevent confusion due to time zone crossing. See the AAL1144 flight status page for this flight to view local times or setup timezone preferences in your user account.

Time Position Orientation Groundspeed Altitude Reporting Facility
EDT Latitude Longitude Course Direction KTS MPH feet Rate Location/Type
Tue 08:23:43 PM 33.6310 -117.8910 190° South 207 238 1,900  Level FlightAware ADS-B
Tue 08:24:13 PM 33.6000 -117.8960 188° South 245 282 2,800 1,909 Climbing FlightAware ADS-B
Tue 08:24:27 PM 33.5840 -117.8970 183° South 261 300 3,300 2,927 Climbing FlightAware ADS-B
Tue 08:24:54 PM 33.5510 -117.8870 166° South 275 316 4,800 2,947 Climbing FlightAware ADS-B
Tue 08:25:24 PM 33.5180 -117.8650 151° Southeast 290 334 6,100 2,793 Climbing FlightAware ADS-B
Tue 08:25:52 PM 33.4960 -117.8290 126° Southeast 292 336 7,500 3,053 Climbing FlightAware ADS-B
Tue 08:26:21 PM 33.5050 -117.7820 77° East 291 335 9,000 2,696 Climbing FlightAware ADS-B
Tue 08:27:01 PM 33.5230 -117.7190 71° East 313 360 10,600 1,683 Climbing FlightAware ADS-B
Tue 08:27:43 PM 33.5420 -117.6440 73° East 366 421 11,300 1,643 Climbing FlightAware ADS-B
Tue 08:28:25 PM 33.5640 -117.5580 73° East 386 444 12,900 2,302 Climbing FlightAware ADS-B
Tue 08:29:09 PM 33.5830 -117.4670 76° East 395 455 14,600 2,286 Climbing FlightAware ADS-B
Tue 08:29:49 PM 33.5870 -117.3760 87° East 406 467 16,100 2,214 Climbing FlightAware ADS-B
Tue 08:30:33 PM 33.5910 -117.2790 87° East 415 478 17,700 2,250 Climbing FlightAware ADS-B
Tue 08:31:09 PM 33.5940 -117.1950 88° East 418 481 19,100 2,000 Climbing FlightAware ADS-B
Tue 08:31:57 PM 33.5980 -117.0830 88° East 433 498 20,500 1,733 Climbing FlightAware ADS-B
Tue 08:32:39 PM 33.6020 -116.9820 87° East 443 510 21,700 1,857 Climbing FlightAware ADS-B
Tue 08:33:21 PM 33.6060 -116.8750 87° East 448 516 23,100 1,902 Climbing FlightAware ADS-B
Tue 08:34:01 PM 33.6090 -116.7770 88° East 449 517 24,300 1,737 Climbing FlightAware ADS-B
Tue 08:34:37 PM 33.6120 -116.6840 88° East 454 522 25,300 1,575 Climbing FlightAware ADS-B
Tue 08:35:21 PM 33.6160 -116.5740 87° East 460 529 26,400 629 Climbing FlightAware ADS-B
Tue 08:36:22 PM 33.6210 -116.4410 87° East 460 529 26,400  Level FlightAware ADS-B
Tue 08:36:58 PM 33.6250 -116.3630 86° East 460 529 26,400  Level FlightAware ADS-B
Tue 08:37:48 PM 33.6300 -116.2550 87° East 460 529 26,400  Level FlightAware ADS-B
Tue 08:38:24 PM 33.6330 -116.1770 87° East 460 529 26,400  Level FlightAware ADS-B
Tue 08:39:12 PM 33.6370 -116.0720 87° East 460 529 26,400 3,577 Level FlightAware ADS-B
Tue 08:40:08 PM 33.6414 -115.8389 87° East 478 550 32,600 3,814 Climbing Los Angeles Center
Tue 08:41:10 PM 33.6944 -115.6917 67° East 485 558 33,900 1,258 Climbing Los Angeles Center
Tue 08:42:12 PM 33.7489 -115.5469 66° East 476 548 35,200 1,161 Climbing Los Angeles Center
Tue 08:43:14 PM 33.8039 -115.4042 65° Northeast 472 543 36,300 261 Climbing Los Angeles Center
Tue 08:49:06 PM 34.1320 -114.5460 65° Northeast 475 547 37,000 105 Climbing FlightAware ADS-B
Tue 08:49:54 PM 34.1730 -114.4390 65° Northeast 475 547 37,000  Level FlightAware ADS-B
Tue 08:50:35 PM 34.2130 -114.3320 66° East 474 545 37,000  Level FlightAware ADS-B
Tue 08:51:13 PM 34.2450 -114.2450 66° East 475 547 37,000  Level FlightAware ADS-B
Tue 08:51:54 PM 34.2840 -114.1390 66° East 475 547 37,000  Level FlightAware ADS-B
Tue 08:52:41 PM 34.3270 -114.0230 66° East 476 548 37,000  Level FlightAware ADS-B
Tue 08:53:20 PM 34.3680 -113.9120 66° East 475 547 37,000  Level FlightAware ADS-B
Tue 08:54:05 PM 34.4080 -113.8030 66° East 476 548 37,000  Level FlightAware ADS-B
Tue 08:54:49 PM 34.4470 -113.6960 66° East 476 548 37,000  Level FlightAware ADS-B
Tue 08:55:29 PM 34.4820 -113.6000 66° East 477 549 37,000  Level FlightAware ADS-B
Tue 08:56:13 PM 34.5210 -113.4920 66° East 478 550 37,000  Level FlightAware ADS-B
Tue 08:56:51 PM 34.5550 -113.3980 66° East 478 550 37,000  Level FlightAware ADS-B
Tue 08:57:37 PM 34.5950 -113.2870 66° East 477 549 37,000  Level FlightAware ADS-B
Tue 08:58:17 PM 34.6300 -113.1890 67° East 477 549 37,000  Level FlightAware ADS-B
Tue 08:58:58 PM 34.6670 -113.0860 66° East 477 549 37,000  Level FlightAware ADS-B
Tue 08:59:42 PM 34.7060 -112.9780 66° East 477 549 37,000  Level FlightAware ADS-B
Tue 09:00:20 PM 34.7390 -112.8850 67° East 477 549 37,000  Level FlightAware ADS-B
Tue 09:01:07 PM 34.7790 -112.7710 67° East 476 548 37,000  Level FlightAware ADS-B
Tue 09:01:47 PM 34.8140 -112.6730 66° East 476 548 37,000  Level FlightAware ADS-B
Tue 09:02:31 PM 34.8520 -112.5650 67° East 477 549 37,000  Level FlightAware ADS-B
Tue 09:03:11 PM 34.8860 -112.4680 67° East 478 550 37,000  Level FlightAware ADS-B
Tue 09:03:52 PM 34.9230 -112.3630 67° East 479 551 37,000  Level FlightAware ADS-B
Tue 09:04:35 PM 34.9600 -112.2570 67° East 479 551 37,000  Level FlightAware ADS-B
Tue 09:05:19 PM 34.9980 -112.1480 67° East 479 551 37,000  Level FlightAware ADS-B
Tue 09:06:00 PM 35.0340 -112.0440 67° East 479 551 37,000  Level FlightAware ADS-B
Tue 09:06:41 PM 35.0690 -111.9420 67° East 480 552 37,000  Level FlightAware ADS-B
Tue 09:07:22 PM 35.1050 -111.8400 67° East 480 552 37,000  Level FlightAware ADS-B
Tue 09:08:05 PM 35.1410 -111.7330 68° East 481 554 37,000  Level FlightAware ADS-B
Tue 09:08:49 PM 35.1780 -111.6250 67° East 481 554 37,000  Level FlightAware ADS-B
Tue 09:09:29 PM 35.2130 -111.5230 67° East 482 555 37,000  Level FlightAware ADS-B
Tue 09:10:13 PM 35.2500 -111.4140 67° East 482 555 37,000  Level FlightAware ADS-B
Tue 09:10:53 PM 35.2850 -111.3110 67° East 480 552 37,000  Level FlightAware ADS-B
Tue 09:11:37 PM 35.3220 -111.2020 67° East 481 554 37,000  Level FlightAware ADS-B
Tue 09:12:19 PM 35.3570 -111.0950 68° East 482 555 37,000  Level FlightAware ADS-B
Tue 09:12:59 PM 35.3910 -110.9950 67° East 483 556 37,000  Level FlightAware ADS-B
Tue 09:13:43 PM 35.4270 -110.8860 68° East 483 556 37,000  Level FlightAware ADS-B
Tue 09:14:23 PM 35.4620 -110.7830 67° East 483 556 37,000  Level FlightAware ADS-B
Tue 09:15:03 PM 35.4960 -110.6800 68° East 484 557 37,000  Level FlightAware ADS-B
Tue 09:15:47 PM 35.5320 -110.5700 68° East 485 558 37,000  Level FlightAware ADS-B
Tue 09:16:29 PM 35.5670 -110.4640 68° East 485 558 37,000  Level FlightAware ADS-B
Tue 09:17:26 PM 35.6160 -110.3160 68° East 484 557 37,000  Level FlightAware ADS-B
Tue 09:18:09 PM 35.6510 -110.2080 68° East 484 557 37,000  Level FlightAware ADS-B
Tue 09:18:38 PM 35.6760 -110.1320 68° East 485 558 37,000  Level FlightAware ADS-B
Tue 09:19:17 PM 35.7080 -110.0330 68° East 485 558 37,000  Level FlightAware ADS-B
Tue 09:20:00 PM 35.7440 -109.9230 68° East 487 560 37,000  Level FlightAware ADS-B
Tue 09:20:37 PM 35.7730 -109.8320 69° East 487 560 37,000  Level FlightAware ADS-B
Tue 09:21:26 PM 35.8080 -109.7250 68° East 487 560 37,000  Level FlightAware ADS-B
Tue 09:22:07 PM 35.8480 -109.5980 69° East 485 558 37,000  Level FlightAware ADS-B
Tue 09:22:51 PM 35.8830 -109.4870 69° East 485 558 37,000  Level FlightAware ADS-B
Tue 09:23:47 PM 35.9280 -109.3490 68° East 485 558 37,000  Level FlightAware ADS-B
Tue 09:24:24 PM 35.9540 -109.2680 68° East 485 558 37,000  Level FlightAware ADS-B
Tue 09:25:27 PM 35.9990 -109.1310 68° East 485 558 37,000  Level FlightAware ADS-B
Tue 09:26:04 PM 36.0250 -109.0500 68° East 485 558 37,000  Level FlightAware ADS-B
Tue 09:26:40 PM 36.0510 -108.9710 68° East 485 558 37,000  Level FlightAware ADS-B
Tue 09:27:28 PM 36.0850 -108.8660 68° East 485 558 37,000  Level FlightAware ADS-B
Tue 09:28:04 PM 36.1110 -108.7870 68° East 485 558 37,000  Level FlightAware ADS-B
Tue 09:28:52 PM 36.1450 -108.6820 68° East 485 558 37,000  Level FlightAware ADS-B
Tue 09:29:38 PM 36.1780 -108.5810 68° East 485 558 37,000  Level FlightAware ADS-B
Tue 09:30:15 PM 36.2050 -108.5000 68° East 485 558 37,000  Level FlightAware ADS-B
Tue 09:31:03 PM 36.2390 -108.3950 68° East 485 558 37,000  Level FlightAware ADS-B
Tue 09:31:40 PM 36.2650 -108.3140 68° East 485 558 37,000  Level FlightAware ADS-B
Tue 09:32:17 PM 36.2920 -108.2330 68° East 485 558 37,000  Level FlightAware ADS-B
Tue 09:33:07 PM 36.3740 -107.9030 73° East 487 560 37,000  Level FlightAware ADS-B
Tue 09:33:47 PM 36.4010 -107.8140 69° East 487 560 37,000  Level FlightAware ADS-B
Tue 09:34:46 PM 36.4420 -107.6830 69° East 487 560 37,000  Level FlightAware ADS-B
Tue 09:35:22 PM 36.4660 -107.6030 70° East 487 560 37,000  Level FlightAware ADS-B
Tue 09:36:11 PM 36.5000 -107.4940 69° East 487 560 37,000  Level FlightAware ADS-B
Tue 09:36:45 PM 36.5230 -107.4180 69° East 487 560 37,000  Level FlightAware ADS-B
Tue 09:37:33 PM 36.5560 -107.3120 69° East 487 560 37,000  Level FlightAware ADS-B
Tue 09:38:09 PM 36.5810 -107.2310 69° East 487 560 37,000  Level FlightAware ADS-B
Tue 09:38:59 PM 36.6150 -107.1200 69° East 487 560 37,000  Level FlightAware ADS-B
Tue 09:39:35 PM 36.6400 -107.0400 69° East 487 560 37,000  Level FlightAware ADS-B
Tue 09:40:22 PM 36.6720 -106.9350 69° East 487 560 37,000  Level FlightAware ADS-B
Tue 09:40:59 PM 36.6980 -106.8530 68° East 487 560 37,000  Level FlightAware ADS-B
Tue 09:41:47 PM 36.7310 -106.7450 69° East 487 560 37,000  Level FlightAware ADS-B
Tue 09:42:22 PM 36.7550 -106.6670 69° East 487 560 37,000 1,348 Level FlightAware ADS-B
Tue 09:43:16 PM 36.8347 -106.3342 69° East 484 557 39,000 1,034 Climbing Denver Center
Tue 09:44:18 PM 36.8819 -106.1678 70° East 483 556 39,000  Level Denver Center
Tue 09:50:20 PM 37.1526 -105.1860 70° East 491 565 39,000  Level FlightAware ADS-B
Tue 09:50:50 PM 37.1750 -105.1040 71° East 492 566 39,000  Level FlightAware ADS-B
Tue 09:51:28 PM 37.2024 -105.0030 71° East 492 566 39,000  Level FlightAware ADS-B
Tue 09:52:25 PM 37.2437 -104.8500 71° East 490 564 39,000  Level FlightAware ADS-B
Tue 09:52:59 PM 37.2681 -104.7590 71° East 489 563 39,000  Level FlightAware ADS-B
Tue 09:53:29 PM 37.2902 -104.6770 71° East 488 562 39,000  Level FlightAware ADS-B
Tue 09:54:36 PM 37.3374 -104.4990 72° East 487 560 39,000  Level FlightAware ADS-B
Tue 09:55:17 PM 37.3667 -104.3890 71° East 485 558 39,000  Level FlightAware ADS-B
Tue 09:56:43 PM 37.4266 -104.1610 72° East 484 557 39,000  Level FlightAware ADS-B
Tue 09:57:13 PM 37.4481 -104.0790 72° East 481 554 39,000  Level FlightAware ADS-B
Tue 09:57:44 PM 37.4692 -103.9980 72° East 479 551 39,000  Level FlightAware ADS-B
Tue 09:58:21 PM 37.4942 -103.9010 72° East 478 550 39,000  Level FlightAware ADS-B
Tue 09:58:57 PM 37.5191 -103.8060 72° East 475 547 39,000  Level FlightAware ADS-B
Tue 09:59:31 PM 37.5419 -103.7170 72° East 474 545 39,000  Level FlightAware ADS-B
Tue 10:00:02 PM 37.5626 -103.6360 72° East 472 543 39,000  Level FlightAware ADS-B
Tue 10:00:32 PM 37.5828 -103.5570 72° East 471 542 39,000  Level FlightAware ADS-B
Tue 10:01:02 PM 37.6030 -103.4780 72° East 470 541 39,000  Level FlightAware ADS-B
Tue 10:01:33 PM 37.6230 -103.4000 72° East 470 541 39,000  Level FlightAware ADS-B
Tue 10:02:03 PM 37.6433 -103.3200 72° East 469 540 39,000  Level FlightAware ADS-B
Tue 10:02:33 PM 37.6632 -103.2410 72° East 470 541 39,000  Level FlightAware ADS-B
Tue 10:03:04 PM 37.6832 -103.1620 72° East 472 543 39,000  Level FlightAware ADS-B
Tue 10:03:34 PM 37.7033 -103.0820 72° East 473 544 39,000  Level FlightAware ADS-B
Tue 10:04:05 PM 37.7236 -103.0010 72° East 473 544 39,000  Level FlightAware ADS-B
Tue 10:04:35 PM 37.7433 -102.9220 72° East 473 544 39,000  Level FlightAware ADS-B
Tue 10:05:07 PM 37.7638 -102.8400 72° East 471 542 39,000  Level FlightAware ADS-B
Tue 10:05:37 PM 37.7838 -102.7590 73° East 472 543 39,000  Level FlightAware ADS-B
Tue 10:06:07 PM 37.8031 -102.6810 73° East 471 542 39,000  Level FlightAware ADS-B
Tue 10:06:37 PM 37.8225 -102.6020 73° East 470 541 39,000  Level FlightAware ADS-B
Tue 10:07:09 PM 37.8431 -102.5180 73° East 470 541 39,000  Level FlightAware ADS-B
Tue 10:07:40 PM 37.8630 -102.4370 73° East 470 541 39,000  Level FlightAware ADS-B
Tue 10:08:11 PM 37.8825 -102.3570 73° East 469 540 39,000  Level FlightAware ADS-B
Tue 10:08:41 PM 37.9017 -102.2780 73° East 469 540 39,000  Level FlightAware ADS-B
Tue 10:09:11 PM 37.9211 -102.1990 73° East 471 542 39,000  Level FlightAware ADS-B
Tue 10:09:42 PM 37.9406 -102.1180 73° East 473 544 39,000  Level FlightAware ADS-B
Tue 10:10:12 PM 37.9597 -102.0390 73° East 474 545 39,000  Level FlightAware ADS-B
Tue 10:10:43 PM 37.9791 -101.9580 73° East 474 545 39,000  Level FlightAware ADS-B
Tue 10:11:17 PM 38.0009 -101.8670 73° East 473 544 39,000  Level FlightAware ADS-B
Tue 10:11:47 PM 38.0199 -101.7870 73° East 472 543 39,000  Level FlightAware ADS-B
Tue 10:12:19 PM 38.0398 -101.7030 73° East 472 543 39,000  Level FlightAware ADS-B
Tue 10:12:49 PM 38.0588 -101.6230 73° East 470 541 39,000  Level FlightAware ADS-B
Tue 10:14:12 PM 38.1075 -101.4172 73° East 469 540 39,000  Level Denver Center
Tue 10:15:14 PM 38.1497 -101.2692 70° East 466 536 39,000  Level Denver Center
Tue 10:16:20 PM 38.1989 -101.0919 71° East 469 540 39,000  Level Kansas City Center
Tue 10:17:21 PM 38.2389 -100.9403 71° East 470 541 39,000  Level Kansas City Center
Tue 10:18:23 PM 38.2864 -100.7628 71° East 472 543 39,000  Level Kansas City Center
Tue 10:23:31 PM 38.5030 -99.9410 71° East 466 536 39,000  Level FlightAware ADS-B
Tue 10:24:18 PM 38.5310 -99.8370 71° East 466 536 39,000  Level FlightAware ADS-B
Tue 10:24:54 PM 38.5580 -99.7310 72° East 468 539 39,000  Level FlightAware ADS-B
Tue 10:25:41 PM 38.5860 -99.6260 71° East 468 539 39,000  Level FlightAware ADS-B
Tue 10:26:27 PM 38.6130 -99.5240 71° East 468 539 39,000  Level FlightAware ADS-B
Tue 10:27:07 PM 38.6470 -99.3770 73° East 465 535 39,000  Level FlightAware ADS-B
Tue 10:27:45 PM 38.6690 -99.2940 71° East 464 534 39,000  Level FlightAware ADS-B
Tue 10:28:33 PM 38.6960 -99.1870 72° East 464 534 39,000  Level FlightAware ADS-B
Tue 10:29:09 PM 38.7160 -99.1070 72° East 464 534 39,000  Level FlightAware ADS-B
Tue 10:29:57 PM 38.7430 -99.0000 72° East 464 534 39,000  Level FlightAware ADS-B
Tue 10:30:30 PM 38.7836 -98.8335 73° East 480 552 39,000  Level FlightAware ADS-B
Tue 10:31:06 PM 38.8078 -98.7353 72° East 479 551 39,000  Level FlightAware ADS-B
Tue 10:31:37 PM 38.8283 -98.6521 72° East 479 551 39,000  Level FlightAware ADS-B
Tue 10:32:16 PM 38.8530 -98.5520 72° East 478 550 39,000  Level FlightAware ADS-B
Tue 10:32:32 PM 38.8649 -98.5027 73° East 479 551 39,000  Level FlightAware ADS-B
Tue 10:33:02 PM 38.8849 -98.4208 73° East 479 551 39,000  Level FlightAware ADS-B
Tue 10:33:34 PM 38.9058 -98.3350 73° East 479 551 39,000  Level FlightAware ADS-B
Tue 10:34:05 PM 38.9258 -98.2525 73° East 479 551 39,000  Level FlightAware ADS-B
Tue 10:34:54 PM 38.9582 -98.1185 73° East 479 551 39,000  Level FlightAware ADS-B
Tue 10:35:25 PM 38.9783 -98.0348 73° East 479 551 39,000  Level FlightAware ADS-B
Tue 10:35:56 PM 38.9986 -97.9495 73° East 480 552 39,000  Level FlightAware ADS-B
Tue 10:36:27 PM 39.0181 -97.8677 73° East 479 551 39,000  Level FlightAware ADS-B
Tue 10:36:57 PM 39.0376 -97.7853 73° East 480 552 39,000  Level FlightAware ADS-B
Tue 10:37:27 PM 39.0571 -97.7029 73° East 479 551 39,000  Level FlightAware ADS-B
Tue 10:37:58 PM 39.0766 -97.6200 73° East 479 551 39,000  Level FlightAware ADS-B
Tue 10:38:28 PM 39.0961 -97.5370 73° East 478 550 39,000  Level FlightAware ADS-B
Tue 10:39:02 PM 39.1175 -97.4457 73° East 478 550 39,000  Level FlightAware ADS-B
Tue 10:39:32 PM 39.1371 -97.3622 73° East 478 550 39,000  Level FlightAware ADS-B
Tue 10:40:03 PM 39.1562 -97.2803 73° East 476 548 39,000  Level FlightAware ADS-B
Tue 10:40:33 PM 39.1751 -97.1989 73° East 475 547 39,000  Level FlightAware ADS-B
Tue 10:41:03 PM 39.1939 -97.1174 73° East 472 543 39,000  Level FlightAware ADS-B
Tue 10:41:34 PM 39.2127 -97.0353 74° East 471 542 39,000  Level FlightAware ADS-B
Tue 10:42:05 PM 39.2320 -96.9508 74° East 470 541 39,000  Level FlightAware ADS-B
Tue 10:42:35 PM 39.2504 -96.8702 74° East 470 541 39,000  Level FlightAware ADS-B
Tue 10:43:05 PM 39.2687 -96.7896 74° East 470 541 39,000  Level FlightAware ADS-B
Tue 10:43:36 PM 39.2876 -96.7064 74° East 470 541 39,000  Level FlightAware ADS-B
Tue 10:44:06 PM 39.3060 -96.6250 74° East 471 542 39,000  Level FlightAware ADS-B
Tue 10:44:37 PM 39.3244 -96.5430 74° East 471 542 39,000  Level FlightAware ADS-B
Tue 10:45:07 PM 39.3426 -96.4616 74° East 472 543 39,000  Level FlightAware ADS-B
Tue 10:45:38 PM 39.3612 -96.3787 74° East 472 543 39,000  Level FlightAware ADS-B
Tue 10:46:09 PM 39.3800 -96.2943 74° East 473 544 39,000  Level FlightAware ADS-B
Tue 10:46:39 PM 39.3981 -96.2124 74° East 476 548 39,000  Level FlightAware ADS-B
Tue 10:47:10 PM 39.4165 -96.1291 74° East 479 551 39,000  Level FlightAware ADS-B
Tue 10:47:43 PM 39.4372 -96.0372 74° East 478 550 39,000  Level FlightAware ADS-B
Tue 10:47:47 PM 39.4400 -96.0270 70° East 477 549 39,000  Level FlightAware ADS-B
Tue 10:48:16 PM 39.4669 -95.9537 65° Northeast 471 542 39,000  Level FlightAware ADS-B
Tue 10:48:28 PM 39.4818 -95.9232 58° Northeast 469 540 39,000  Level FlightAware ADS-B
Tue 10:49:02 PM 39.5222 -95.8436 57° Northeast 470 541 39,000  Level FlightAware ADS-B
Tue 10:49:34 PM 39.5598 -95.7690 57° Northeast 470 541 39,000  Level FlightAware ADS-B
Tue 10:50:04 PM 39.5959 -95.6970 57° Northeast 471 542 39,000  Level FlightAware ADS-B
Tue 10:50:35 PM 39.6318 -95.6252 57° Northeast 471 542 39,000  Level FlightAware ADS-B
Tue 10:51:05 PM 39.6673 -95.5544 57° Northeast 471 542 39,000  Level FlightAware ADS-B
Tue 10:51:36 PM 39.7043 -95.4804 57° Northeast 471 542 39,000  Level FlightAware ADS-B
Tue 10:52:06 PM 39.7400 -95.4086 57° Northeast 470 541 39,000  Level FlightAware ADS-B
Tue 10:52:37 PM 39.7756 -95.3372 57° Northeast 470 541 39,000  Level FlightAware ADS-B
Tue 10:53:09 PM 39.8139 -95.2599 57° Northeast 470 541 39,000  Level FlightAware ADS-B
Tue 10:53:40 PM 39.8498 -95.1874 57° Northeast 470 541 39,000  Level FlightAware ADS-B
Tue 10:54:10 PM 39.8857 -95.1147 57° Northeast 470 541 39,000  Level FlightAware ADS-B
Tue 10:54:22 PM 39.8994 -95.0888 55° Northeast 467 537 39,000  Level FlightAware ADS-B
Tue 10:54:31 PM 39.9132 -95.0681 49° Northeast 463 533 39,000  Level FlightAware ADS-B
Tue 10:55:02 PM 39.9600 -95.0105 43° Northeast 462 532 39,000  Level FlightAware ADS-B
Tue 10:55:32 PM 40.0071 -94.9536 43° Northeast 462 532 39,000  Level FlightAware ADS-B
Tue 10:55:55 PM 40.0424 -94.9100 43° Northeast 464 534 39,000  Level FlightAware ADS-B
Tue 10:56:06 PM 40.0583 -94.8853 50° Northeast 467 537 39,000  Level FlightAware ADS-B
Tue 10:56:17 PM 40.0720 -94.8610 54° Northeast 470 541 39,000  Level FlightAware ADS-B
Tue 10:56:48 PM 40.1078 -94.7863 58° Northeast 473 544 39,000  Level FlightAware ADS-B
Tue 10:57:18 PM 40.1421 -94.7131 58° Northeast 473 544 39,000  Level FlightAware ADS-B
Tue 10:57:48 PM 40.1764 -94.6394 59° Northeast 474 545 39,000  Level FlightAware ADS-B
Tue 10:58:18 PM 40.2107 -94.5652 59° Northeast 474 545 39,000  Level FlightAware ADS-B
Tue 10:58:48 PM 40.2448 -94.4916 59° Northeast 476 548 39,000  Level FlightAware ADS-B
Tue 10:59:19 PM 40.2799 -94.4156 59° Northeast 476 548 39,000  Level FlightAware ADS-B
Tue 10:59:53 PM 40.3181 -94.3328 59° Northeast 479 551 39,000  Level FlightAware ADS-B
Tue 11:00:23 PM 40.3528 -94.2573 59° Northeast 480 552 39,000  Level FlightAware ADS-B
Tue 11:00:54 PM 40.3876 -94.1816 59° Northeast 482 555 39,000  Level FlightAware ADS-B
Tue 11:01:24 PM 40.4227 -94.1051 59° Northeast 483 556 39,000  Level FlightAware ADS-B
Tue 11:01:54 PM 40.4572 -94.0298 59° Northeast 484 557 39,000  Level FlightAware ADS-B
Tue 11:02:26 PM 40.4942 -93.9490 59° Northeast 486 559 39,000  Level FlightAware ADS-B
Tue 11:02:57 PM 40.5293 -93.8715 59° Northeast 486 559 39,000  Level FlightAware ADS-B
Tue 11:03:28 PM 40.5649 -93.7928 59° Northeast 486 559 39,000  Level FlightAware ADS-B
Tue 11:04:11 PM 40.6136 -93.6851 59° Northeast 482 555 39,000  Level FlightAware ADS-B
Tue 11:04:41 PM 40.6478 -93.6093 59° Northeast 480 552 39,000 -545 Level FlightAware ADS-B
Tue 11:05:17 PM 40.6886 -93.5188 59° Northeast 482 555 38,400 -1,000 Descending FlightAware ADS-B
Tue 11:05:47 PM 40.7235 -93.4421 59° Northeast 489 563 37,900 -968 Descending FlightAware ADS-B
Tue 11:06:19 PM 40.7601 -93.3605 59° Northeast 496 571 37,400 -762 Descending FlightAware ADS-B
Tue 11:06:50 PM 40.7960 -93.2792 60° Northeast 495 570 37,100 -393 Descending FlightAware ADS-B
Tue 11:07:20 PM 40.8307 -93.2009 60° Northeast 495 570 37,000 -100 Descending FlightAware ADS-B
Tue 11:07:50 PM 40.8659 -93.1220 59° Northeast 493 567 37,000  Level FlightAware ADS-B
Tue 11:08:23 PM 40.9034 -93.0373 60° Northeast 492 566 37,000  Level FlightAware ADS-B
Tue 11:09:10 PM 40.9568 -92.9168 60° Northeast 491 565 37,000  Level FlightAware ADS-B
Tue 11:10:07 PM 41.0330 -92.7810 53° Northeast 487 560 37,000  Level FlightAware ADS-B
Tue 11:10:47 PM 41.0940 -92.6910 48° Northeast 487 560 37,000  Level FlightAware ADS-B
Tue 11:11:31 PM 41.1590 -92.5960 48° Northeast 490 564 37,000  Level FlightAware ADS-B
Tue 11:12:16 PM 41.2260 -92.4970 48° Northeast 492 566 37,000  Level FlightAware ADS-B
Tue 11:12:58 PM 41.2930 -92.3980 48° Northeast 494 568 37,000  Level FlightAware ADS-B
Tue 11:13:36 PM 41.3510 -92.3130 48° Northeast 495 570 37,000  Level FlightAware ADS-B
Tue 11:14:19 PM 41.4150 -92.2160 49° Northeast 497 572 37,000  Level FlightAware ADS-B
Tue 11:14:58 PM 41.4760 -92.1260 48° Northeast 497 572 37,000  Level FlightAware ADS-B
Tue 11:15:43 PM 41.5440 -92.0230 49° Northeast 497 572 37,000  Level FlightAware ADS-B
Tue 11:16:19 PM 41.5920 -91.9520 48° Northeast 496 571 37,000  Level FlightAware ADS-B
Tue 11:17:07 PM 41.6690 -91.8350 49° Northeast 495 570 37,000  Level FlightAware ADS-B
Tue 11:17:53 PM 41.7400 -91.7290 48° Northeast 494 568 37,000  Level FlightAware ADS-B
Tue 11:18:31 PM 41.8000 -91.6370 49° Northeast 493 567 37,000  Level FlightAware ADS-B
Tue 11:19:16 PM 41.8670 -91.5360 48° Northeast 491 565 37,000  Level FlightAware ADS-B
Tue 11:19:56 PM 41.9240 -91.4480 49° Northeast 484 557 37,000  Level FlightAware ADS-B
Tue 11:20:34 PM 41.9800 -91.3630 48° Northeast 482 555 37,000 -434 Level FlightAware ADS-B
Tue 11:21:19 PM 42.0460 -91.2620 49° Northeast 489 563 36,400 -933 Descending FlightAware ADS-B
Tue 11:22:04 PM 42.1100 -91.1630 49° Northeast 494 568 35,600 -1,271 Descending FlightAware ADS-B
Tue 11:22:44 PM 42.1730 -91.0660 49° Northeast 486 559 34,600 -1,259 Descending FlightAware ADS-B
Tue 11:23:25 PM 42.2330 -90.9720 49° Northeast 484 557 33,900 -878 Descending FlightAware ADS-B
Tue 11:24:06 PM 42.2930 -90.8780 49° Northeast 482 555 33,400 -635 Descending FlightAware ADS-B
Tue 11:24:50 PM 42.3590 -90.7750 49° Northeast 479 551 33,000 -1,011 Descending FlightAware ADS-B
Tue 11:25:35 PM 42.4060 -90.6590 61° Northeast 487 560 31,900 -1,571 Descending FlightAware ADS-B
Tue 11:26:14 PM 42.4190 -90.5390 82° East 485 558 30,800 -1,704 Descending FlightAware ADS-B
Tue 11:26:56 PM 42.4280 -90.4150 84° East 477 549 29,600 -1,714 Descending FlightAware ADS-B
Tue 11:27:38 PM 42.4250 -90.2920 92° East 470 541 28,400 -1,814 Descending FlightAware ADS-B
Tue 11:28:22 PM 42.4220 -90.1630 92° East 462 532 27,000 -1,857 Descending FlightAware ADS-B
Tue 11:29:02 PM 42.4200 -90.0490 91° East 452 520 25,800 -1,786 Descending FlightAware ADS-B
Tue 11:29:46 PM 42.4170 -89.9260 92° East 440 506 24,500 -1,857 Descending FlightAware ADS-B
Tue 11:30:26 PM 42.4150 -89.8150 91° East 455 524 23,200 -1,929 Descending FlightAware ADS-B
Tue 11:31:10 PM 42.4110 -89.6920 92° East 447 514 21,800 -1,884 Descending FlightAware ADS-B
Tue 11:31:52 PM 42.4090 -89.5740 91° East 438 504 20,500 -1,829 Descending FlightAware ADS-B
Tue 11:32:32 PM 42.4060 -89.4660 92° East 422 486 19,300 -1,786 Descending FlightAware ADS-B
Tue 11:33:16 PM 42.4020 -89.3530 93° East 417 480 18,000 -1,765 Descending FlightAware ADS-B
Tue 11:33:57 PM 42.3990 -89.2470 92° East 416 479 16,800 -1,683 Descending FlightAware ADS-B
Tue 11:34:38 PM 42.3960 -89.1400 92° East 417 480 15,700 -1,694 Descending FlightAware ADS-B
Tue 11:35:22 PM 42.3930 -89.0250 92° East 409 471 14,400 -1,744 Descending FlightAware ADS-B
Tue 11:36:04 PM 42.3890 -88.9210 93° East 400 460 13,200 -1,643 Descending FlightAware ADS-B
Tue 11:36:46 PM 42.3860 -88.8170 92° East 385 443 12,100 -1,537 Descending FlightAware ADS-B
Tue 11:37:26 PM 42.3830 -88.7210 92° East 379 436 11,100 -1,308 Descending FlightAware ADS-B
Tue 11:38:04 PM 42.3800 -88.6330 93° East 375 432 10,400 -706 Descending FlightAware ADS-B
Tue 11:38:51 PM 42.3760 -88.5240 93° East 369 425 10,100 -209 Descending FlightAware ADS-B
Tue 11:39:30 PM 42.3570 -88.4390 107° East 376 433 10,100  Level FlightAware ADS-B
Tue 11:40:13 PM 42.3180 -88.3520 121° Southeast 373 429 10,100  Level FlightAware ADS-B
Tue 11:40:57 PM 42.2700 -88.2710 129° Southeast 372 428 10,100  Level FlightAware ADS-B
Tue 11:41:40 PM 42.2250 -88.1950 129° Southeast 371 427 10,100  Level FlightAware ADS-B
Tue 11:42:20 PM 42.1780 -88.1260 133° Southeast 371 427 10,100 -72 Level FlightAware ADS-B
Tue 11:43:03 PM 42.1250 -88.0660 140° Southeast 324 373 10,000 -407 Descending FlightAware ADS-B
Tue 11:43:19 PM 42.1070 -88.0440 138° Southeast 316 364 9,700 -1,071 Descending FlightAware ADS-B
Tue 11:43:31 PM 42.0980 -88.0270 126° Southeast 314 361 9,500 -1,286 Descending FlightAware ADS-B
Tue 11:43:47 PM 42.0920 -87.9950 104° East 310 357 9,100 -1,500 Descending FlightAware ADS-B
Tue 11:43:51 PM 42.0920 -87.9870 90° East 310 357 9,000 -1,463 Descending FlightAware ADS-B
Tue 11:44:28 PM 42.0920 -87.9180 90° East 309 356 8,100 -1,279 Descending FlightAware ADS-B
Tue 11:44:52 PM 42.0920 -87.8740 90° East 296 341 7,700 -766 Descending FlightAware ADS-B
Tue 11:45:15 PM 42.0920 -87.8350 90° East 272 313 7,500 -1,067 Descending FlightAware ADS-B
Tue 11:45:37 PM 42.0920 -87.7990 90° East 261 300 6,900 -1,696 Descending FlightAware ADS-B
Tue 11:46:01 PM 42.0920 -87.7600 90° East 257 296 6,200 -1,895 Descending FlightAware ADS-B
Tue 11:46:34 PM 42.0830 -87.7100 104° East 251 289 5,100 -1,953 Descending FlightAware ADS-B
Tue 11:46:44 PM 42.0740 -87.7000 140° Southeast 246 283 4,800 -1,556 Descending FlightAware ADS-B
Tue 11:47:01 PM 42.0580 -87.6940 164° South 232 267 4,400 -1,565 Descending FlightAware ADS-B
Tue 11:47:07 PM 42.0520 -87.6940 180° South 230 265 4,200 -1,846 Descending FlightAware ADS-B
Tue 11:47:27 PM 42.0320 -87.7030 198° South 214 246 3,600 -1,667 Descending FlightAware ADS-B
Tue 11:47:43 PM 42.0210 -87.7150 219° Southwest 205 236 3,200 -1,317 Descending FlightAware ADS-B
Tue 11:48:08 PM 42.0050 -87.7380 227° Southwest 187 215 2,700 -842 Descending FlightAware ADS-B
Tue 11:48:40 PM 41.9890 -87.7650 231° Southwest 170 196 2,400 -577 Descending FlightAware ADS-B
Tue 11:49:00 PM 41.9840 -87.7830 250° West 158 182 2,200 -732 Descending FlightAware ADS-B
Tue 11:49:21 PM 41.9840 -87.8030 270° West 152 175 1,900 -625 Descending FlightAware ADS-B
Tue 11:49:48 PM 41.9840 -87.8280 270° West 143 165 1,700 -649 Descending FlightAware ADS-B
Tue 11:49:58 PM 41.9840 -87.8370 270° West 142 163 1,500 -1,043 Descending FlightAware ADS-B
Tue 11:50:11 PM 41.9840 -87.8500 270° West 141 162 1,300 -783 Descending FlightAware ADS-B
Tue 11:50:44 PM 41.9840 -87.8790 270° West 142 163 900 -698 Descending FlightAware ADS-B
Tue 11:50:54 PM 41.9840 -87.8880 270° West 142 163 800 -600 Descending FlightAware ADS-B
Tue 11:51:42 PM 41.9840 -87.9190 270° West 105 121 -1,000 Descending FlightAware ADS-B

Login

Don't have an account? Register now (free) for customized features, flight alerts, and more!